Terminal Aerodrome Forecast
Issued by NWS Jackson, MS

Home | Current Version | Previous Version | Text Only | Print | Product List | Glossary On
Versions: 1 2 3 4 5 6 7 8 9 10 11 12 13 14 15 16 17 18 19 20 21 22 23 24 25 26 27 28
000
FTUS44 KJAN 261125
TAFMEI
TAF
KMEI 261125Z 2612/2712 09004KT P6SM VCSH SCT025 BKN045
     FM261500 10008KT P6SM VCSH BKN015
     FM262000 09008KT P6SM -TSRA BKN025 BKN040CB
     FM270200 12007KT P6SM BKN020
     FM270600 13007KT P6SM BKN007=

USA.gov is the U.S. government's official web portal to all federal, state and local government web resources and services.